createdAt,value
2022-08-18T00:01:16.846Z,24.23
2022-08-18T00:03:56.143Z,25.38
2022-08-18T00:06:29.921Z,23.73
2022-08-18T00:09:00.277Z,23.98
2022-08-18T00:11:41.444Z,26.10
2022-08-18T00:14:19.683Z,27.80
2022-08-18T00:16:52.312Z,25.23
2022-08-18T00:19:43.424Z,22.52
2022-08-18T00:22:14.827Z,25.50
2022-08-18T00:24:48.291Z,22.25
2022-08-18T00:27:23.956Z,26.70
2022-08-18T00:29:58.426Z,29.75
2022-08-18T00:32:29.182Z,24.42
2022-08-18T00:34:57.511Z,22.50
2022-08-18T00:37:26.309Z,23.58
2022-08-18T00:39:55.693Z,28.65
2022-08-18T00:42:31.016Z,22.20
2022-08-18T00:45:02.454Z,27.33
2022-08-18T00:47:42.030Z,26.95
2022-08-18T00:50:24.434Z,22.95
2022-08-18T00:52:55.331Z,25.17
2022-08-18T00:55:24.798Z,27.77
2022-08-18T00:58:01.371Z,22.90
2022-08-18T01:00:30.205Z,28.02
2022-08-18T01:03:02.485Z,24.33
2022-08-18T01:05:38.145Z,22.90
2022-08-18T01:08:10.562Z,25.85
2022-08-18T01:10:39.736Z,26.08
2022-08-18T01:13:10.310Z,23.07
2022-08-18T01:15:39.593Z,23.63
2022-08-18T01:18:37.668Z,24.83
2022-08-18T01:21:29.341Z,26.00
2022-08-18T01:24:00.094Z,24.90
2022-08-18T01:26:29.081Z,28.80
2022-08-18T01:29:06.189Z,24.70
2022-08-18T01:31:38.416Z,24.80
2022-08-18T01:34:08.271Z,26.52
2022-08-18T01:36:38.612Z,34.33
2022-08-18T01:44:08.879Z,30.70
2022-08-18T01:46:37.701Z,25.50
2022-08-18T01:49:08.229Z,26.90
2022-08-18T01:51:39.966Z,28.95
2022-08-18T01:54:15.751Z,28.45
2022-08-18T01:56:44.593Z,27.15
2022-08-18T01:59:14.913Z,31.33
2022-08-18T02:01:50.425Z,25.85
2022-08-18T02:04:41.571Z,28.85
2022-08-18T02:07:12.745Z,27.08
2022-08-18T02:09:44.676Z,27.38
2022-08-18T02:12:14.428Z,26.52
2022-08-18T02:14:43.384Z,28.15
2022-08-18T02:17:13.663Z,29.48
2022-08-18T02:19:44.640Z,29.83
2022-08-18T02:22:15.872Z,32.05
2022-08-18T02:24:46.491Z,29.35
2022-08-18T02:27:16.533Z,28.35
2022-08-18T02:29:45.526Z,35.05
2022-08-18T02:32:14.371Z,28.50
2022-08-18T02:34:42.985Z,26.80
2022-08-18T02:37:15.308Z,31.88
2022-08-18T02:39:46.256Z,27.58
2022-08-18T02:42:16.584Z,28.42
2022-08-18T02:44:45.822Z,27.55
2022-08-18T02:47:14.600Z,27.08
2022-08-18T02:49:43.604Z,28.52
2022-08-18T02:52:12.246Z,29.73
2022-08-18T02:54:40.976Z,28.80
2022-08-18T02:57:13.005Z,28.08
2022-08-18T02:59:42.717Z,28.13
2022-08-18T03:02:16.045Z,29.25
2022-08-18T03:04:44.435Z,26.30
2022-08-18T03:07:13.155Z,27.95
2022-08-18T03:09:42.536Z,27.52
2022-08-18T03:12:12.851Z,27.52
2022-08-18T03:17:10.926Z,26.85
2022-08-18T03:19:39.539Z,27.90
2022-08-18T03:22:27.655Z,27.38
2022-08-18T03:24:58.291Z,26.75
2022-08-18T03:27:28.510Z,28.10
2022-08-18T03:29:58.809Z,27.65
2022-08-18T03:32:27.853Z,28.52
2022-08-18T03:34:56.159Z,30.17
2022-08-18T03:37:24.909Z,28.92
2022-08-18T03:39:53.666Z,28.90
2022-08-18T03:42:22.576Z,35.75
2022-08-18T03:44:52.929Z,33.78
2022-08-18T03:49:50.135Z,30.27
2022-08-18T03:52:18.731Z,29.67
2022-08-18T03:54:48.623Z,27.35
2022-08-18T03:57:17.349Z,28.17
2022-08-18T03:59:46.354Z,26.55
2022-08-18T04:02:16.482Z,32.67
2022-08-18T04:04:44.877Z,27.02
2022-08-18T04:07:17.312Z,26.02
2022-08-18T04:09:47.030Z,26.63
2022-08-18T04:12:17.511Z,27.60
2022-08-18T04:14:49.567Z,32.13
2022-08-18T04:17:24.455Z,26.17
2022-08-18T04:19:53.407Z,26.80
2022-08-18T04:22:22.762Z,28.23
2022-08-18T04:24:51.739Z,33.35
2022-08-18T04:27:21.606Z,26.38
2022-08-18T04:29:50.985Z,27.33
2022-08-18T04:32:21.096Z,27.40
2022-08-18T04:34:49.549Z,26.15
2022-08-18T04:37:18.559Z,27.08
2022-08-18T04:39:47.441Z,26.50
2022-08-18T04:42:16.206Z,30.33
2022-08-18T04:44:45.090Z,28.20
2022-08-18T04:47:13.855Z,29.83
2022-08-18T04:49:44.731Z,26.02
2022-08-18T04:52:40.835Z,27.73
2022-08-18T04:55:11.094Z,27.90
2022-08-18T04:57:42.735Z,31.75
2022-08-18T05:00:13.588Z,30.50
2022-08-18T05:02:42.805Z,32.95
2022-08-18T05:05:13.108Z,34.47
2022-08-18T05:07:46.238Z,30.15
2022-08-18T05:10:17.940Z,28.75
2022-08-18T05:12:49.100Z,32.03
2022-08-18T05:15:19.044Z,30.48
2022-08-18T05:17:50.385Z,31.13
2022-08-18T05:20:23.364Z,30.52
2022-08-18T05:22:51.782Z,30.85
2022-08-18T05:25:21.061Z,34.67
2022-08-18T05:27:49.919Z,34.17
2022-08-18T05:30:18.912Z,34.50
2022-08-18T05:32:50.433Z,33.85
2022-08-18T05:35:26.679Z,31.50
2022-08-18T05:38:24.874Z,37.72
2022-08-18T05:41:07.348Z,31.73
2022-08-18T05:43:36.991Z,32.92
2022-08-18T05:46:21.829Z,34.17
2022-08-18T05:48:51.568Z,34.22
2022-08-18T05:51:28.045Z,34.92
2022-08-18T05:54:19.540Z,31.88
2022-08-18T05:56:48.641Z,32.25
2022-08-18T05:59:21.815Z,30.60
2022-08-18T06:01:54.636Z,34.22
2022-08-18T06:04:36.529Z,42.75
2022-08-18T06:07:10.368Z,32.35
2022-08-18T06:09:44.532Z,30.45
2022-08-18T06:12:21.461Z,32.22
2022-08-18T06:14:50.303Z,28.05
2022-08-18T06:17:43.796Z,27.23
2022-08-18T06:20:20.509Z,28.15
2022-08-18T06:22:56.647Z,26.20
2022-08-18T06:25:30.445Z,33.67
2022-08-18T06:28:05.963Z,23.85
2022-08-18T06:30:47.299Z,39.05
2022-08-18T06:33:29.820Z,26.83
2022-08-18T06:36:02.815Z,27.33
2022-08-18T06:38:52.873Z,21.52
2022-08-18T06:41:41.942Z,21.33
2022-08-18T06:44:16.450Z,34.63
2022-08-18T06:46:47.922Z,24.10
2022-08-18T06:49:36.993Z,24.10
2022-08-18T06:52:26.980Z,23.13
2022-08-18T06:54:59.120Z,24.02
2022-08-18T06:57:31.767Z,26.15
2022-08-18T07:00:05.176Z,27.63
2022-08-18T07:02:44.079Z,19.40
2022-08-18T07:05:24.284Z,21.33
2022-08-18T07:08:19.904Z,28.65
2022-08-18T07:10:52.134Z,18.92
2022-08-18T07:13:26.652Z,24.15
2022-08-18T07:15:57.476Z,24.02
2022-08-18T07:18:28.244Z,11.68
2022-08-18T07:20:59.166Z,17.05
2022-08-18T07:23:33.977Z,15.48
2022-08-18T07:26:08.883Z,15.90
2022-08-18T07:28:41.931Z,16.23
2022-08-18T07:31:26.130Z,16.10
2022-08-18T07:33:59.388Z,10.95
2022-08-18T07:36:31.691Z,20.70
2022-08-18T07:39:06.321Z,16.33
2022-08-18T07:41:41.735Z,17.00
2022-08-18T07:44:18.475Z,15.02
2022-08-18T07:46:53.636Z,17.75
2022-08-18T07:49:24.911Z,12.45
2022-08-18T07:51:58.560Z,21.90
2022-08-18T07:54:50.442Z,12.13
2022-08-18T07:57:28.336Z,14.40
2022-08-18T08:00:10.482Z,17.73
2022-08-18T08:02:59.057Z,13.52
2022-08-18T08:05:39.883Z,11.25
2022-08-18T08:08:19.130Z,10.15
2022-08-18T08:11:06.296Z,18.92
2022-08-18T08:13:55.323Z,13.13
2022-08-18T08:16:32.936Z,13.85
2022-08-18T08:19:12.188Z,8.50
2022-08-18T08:24:16.860Z,15.47
2022-08-18T08:26:52.786Z,12.63
2022-08-18T08:29:29.126Z,18.08
2022-08-18T08:32:03.576Z,10.32
2022-08-18T08:34:36.793Z,11.02
2022-08-18T08:37:08.544Z,11.85
2022-08-18T08:39:40.091Z,11.40
2022-08-18T08:42:31.546Z,11.75
2022-08-18T08:45:06.597Z,20.85
2022-08-18T08:47:38.774Z,14.13
2022-08-18T08:50:11.151Z,15.88
2022-08-18T08:52:43.660Z,16.25
2022-08-18T08:55:18.915Z,18.33
2022-08-18T08:57:52.528Z,14.93
2022-08-18T09:00:23.252Z,12.60
2022-08-18T09:03:03.598Z,15.68
2022-08-18T09:05:37.334Z,13.85
2022-08-18T09:08:36.098Z,10.23
2022-08-18T09:11:29.853Z,15.27
2022-08-18T09:14:14.439Z,15.23
2022-08-18T09:16:54.178Z,11.27
2022-08-18T09:19:33.204Z,10.00
2022-08-18T09:22:06.135Z,9.43
2022-08-18T09:24:41.505Z,9.23
2022-08-18T09:27:16.745Z,11.73
2022-08-18T09:29:52.673Z,13.10
2022-08-18T09:32:45.118Z,12.73
2022-08-18T09:35:31.112Z,13.10
2022-08-18T09:38:25.990Z,10.13
2022-08-18T09:41:16.083Z,9.88
2022-08-18T09:47:01.315Z,9.90
2022-08-18T09:49:51.124Z,12.27
2022-08-18T09:52:57.794Z,6.53
2022-08-18T09:56:01.129Z,7.93
2022-08-18T09:58:52.852Z,13.95
2022-08-18T10:01:39.971Z,10.40
2022-08-18T10:04:31.309Z,15.98
2022-08-18T10:07:24.220Z,10.25
2022-08-18T10:10:03.779Z,10.23
2022-08-18T10:12:59.865Z,9.20
2022-08-18T10:15:41.627Z,8.93
2022-08-18T10:18:32.646Z,9.40
2022-08-18T10:21:09.525Z,9.73
2022-08-18T10:24:14.649Z,6.88
2022-08-18T10:27:13.080Z,16.65
2022-08-18T10:29:59.712Z,11.23
2022-08-18T10:32:52.185Z,14.48
2022-08-18T10:35:58.561Z,7.57
2022-08-18T10:38:46.165Z,7.00
2022-08-18T10:41:25.731Z,8.88
2022-08-18T10:43:57.670Z,9.68
2022-08-18T10:46:32.654Z,8.18
2022-08-18T10:49:08.865Z,6.72
2022-08-18T10:52:01.357Z,9.13
2022-08-18T10:57:35.996Z,14.65
2022-08-18T11:00:12.095Z,10.32
2022-08-18T11:03:49.942Z,14.23
2022-08-18T11:05:47.696Z,8.77
2022-08-18T11:08:18.987Z,7.65
2022-08-18T11:11:27.572Z,18.02
2022-08-18T11:13:51.597Z,9.88
2022-08-18T11:16:30.041Z,11.27
2022-08-18T11:19:00.486Z,7.68
2022-08-18T11:21:41.950Z,13.32
2022-08-18T11:24:15.988Z,18.20
2022-08-18T11:26:52.577Z,13.80
2022-08-18T11:29:32.139Z,18.65
2022-08-18T11:32:05.737Z,20.00
2022-08-18T11:34:41.305Z,14.93
2022-08-18T11:37:28.355Z,8.50
2022-08-18T11:41:09.819Z,26.00
2022-08-18T11:46:04.583Z,8.68
2022-08-18T11:51:30.387Z,6.93
2022-08-18T11:54:01.158Z,6.65
2022-08-18T11:56:35.763Z,15.18
2022-08-18T11:59:08.001Z,12.60
2022-08-18T12:01:51.301Z,8.05
2022-08-18T12:04:25.749Z,12.35
2022-08-18T12:07:06.785Z,13.15
2022-08-18T12:12:31.650Z,10.00
2022-08-18T12:15:13.969Z,11.23
2022-08-18T12:17:52.282Z,9.02
2022-08-18T12:20:23.041Z,12.63
2022-08-18T12:22:52.330Z,8.80
2022-08-18T12:25:24.592Z,8.82
2022-08-18T12:27:54.774Z,13.27
2022-08-18T12:30:23.681Z,9.45
2022-08-18T12:35:44.763Z,13.23
2022-08-18T12:38:15.788Z,6.63
2022-08-18T12:40:44.319Z,6.82
2022-08-18T12:43:13.405Z,6.00
2022-08-18T12:45:42.632Z,10.88
2022-08-18T12:48:12.657Z,9.07
2022-08-18T12:50:54.134Z,6.70
2022-08-18T12:53:29.921Z,7.25
2022-08-18T12:56:21.056Z,18.77
2022-08-18T12:58:50.082Z,7.57
2022-08-18T13:01:19.436Z,7.57
2022-08-18T13:03:52.741Z,11.10
2022-08-18T13:06:40.825Z,9.35
2022-08-18T13:09:16.624Z,6.60
2022-08-18T13:12:02.883Z,10.20
2022-08-18T13:14:31.566Z,6.70
2022-08-18T13:17:00.659Z,6.15
2022-08-18T13:19:32.042Z,9.05
2022-08-18T13:22:02.010Z,6.63
2022-08-18T13:24:32.554Z,8.05
2022-08-18T13:27:01.836Z,9.48
2022-08-18T13:29:30.614Z,11.90
2022-08-18T13:31:59.747Z,5.30
2022-08-18T13:34:29.798Z,7.03
2022-08-18T13:37:00.523Z,14.80
2022-08-18T13:39:33.823Z,10.65
2022-08-18T13:42:21.759Z,6.55
2022-08-18T13:44:55.244Z,7.57
2022-08-18T13:47:27.647Z,6.32
2022-08-18T13:49:58.309Z,9.38
2022-08-18T13:52:41.154Z,9.73
2022-08-18T13:55:16.837Z,10.18
2022-08-18T13:57:49.968Z,6.28
2022-08-18T14:00:29.735Z,9.88
2022-08-18T14:03:02.137Z,8.63
2022-08-18T14:05:36.721Z,7.10
2022-08-18T14:08:22.182Z,10.60
2022-08-18T14:10:54.248Z,8.63
2022-08-18T14:13:24.541Z,9.57
2022-08-18T14:15:54.913Z,5.75
2022-08-18T14:18:29.082Z,10.95
2022-08-18T14:21:22.913Z,6.97
2022-08-18T14:24:14.450Z,12.25
2022-08-18T14:26:50.077Z,6.15
2022-08-18T14:29:45.529Z,4.97
2022-08-18T14:34:37.364Z,15.70
2022-08-18T14:37:06.003Z,6.78
2022-08-18T14:39:40.226Z,5.18
2022-08-18T14:42:09.290Z,13.52
2022-08-18T14:44:41.622Z,11.77
2022-08-18T14:47:24.228Z,8.35
2022-08-18T14:49:53.113Z,11.93
2022-08-18T14:52:24.267Z,14.10
2022-08-18T14:57:24.056Z,6.63
2022-08-18T14:59:54.726Z,9.73
2022-08-18T15:02:26.047Z,11.00
2022-08-18T15:04:57.711Z,10.83
2022-08-18T15:07:26.835Z,11.32
2022-08-18T15:10:14.795Z,7.90
2022-08-18T15:12:46.079Z,14.20
2022-08-18T15:17:50.321Z,8.52
2022-08-18T15:20:28.665Z,6.72
2022-08-18T15:23:25.113Z,8.10
2022-08-18T15:25:59.757Z,8.25
2022-08-18T15:28:29.134Z,8.52
2022-08-18T15:33:51.033Z,10.57
2022-08-18T15:36:28.768Z,9.60
2022-08-18T15:38:58.194Z,7.95
2022-08-18T15:44:01.203Z,9.05
2022-08-18T15:46:33.378Z,7.75
2022-08-18T15:49:05.401Z,7.68
2022-08-18T15:51:41.173Z,8.63
2022-08-18T15:54:12.462Z,15.35
2022-08-18T15:56:43.509Z,10.80
2022-08-18T15:59:12.714Z,8.15
2022-08-18T16:01:43.066Z,11.20
2022-08-18T16:04:15.622Z,6.97
2022-08-18T16:06:47.984Z,7.65
2022-08-18T16:09:17.950Z,8.25
2022-08-18T16:11:48.275Z,11.10
2022-08-18T16:14:17.101Z,10.10
2022-08-18T16:16:45.563Z,17.63
2022-08-18T16:19:14.576Z,9.10
2022-08-18T16:21:43.290Z,10.95
2022-08-18T16:24:14.462Z,11.32
2022-08-18T16:26:44.300Z,15.25
2022-08-18T16:29:14.510Z,8.77
2022-08-18T16:31:42.897Z,7.28
2022-08-18T16:34:11.894Z,10.33
2022-08-18T16:36:40.761Z,7.28
2022-08-18T16:39:09.707Z,12.27
2022-08-18T16:41:38.755Z,10.40
2022-08-18T16:44:07.639Z,11.20
2022-08-18T16:46:37.596Z,7.88
2022-08-18T16:49:08.120Z,13.05
2022-08-18T16:51:38.354Z,14.27
2022-08-18T16:54:07.147Z,14.80
2022-08-18T16:56:36.717Z,9.83
2022-08-18T16:59:23.256Z,15.48
2022-08-18T17:02:10.762Z,12.20
2022-08-18T17:04:39.669Z,14.25
2022-08-18T17:07:08.779Z,10.07
2022-08-18T17:09:37.609Z,9.38
2022-08-18T17:12:06.718Z,12.00
2022-08-18T17:14:36.942Z,16.33
2022-08-18T17:17:07.769Z,13.20
2022-08-18T17:19:37.669Z,9.63
2022-08-18T17:22:08.504Z,16.52
2022-08-18T17:24:37.958Z,10.60
2022-08-18T17:27:27.244Z,11.20
2022-08-18T17:30:04.024Z,13.32
2022-08-18T17:32:39.747Z,11.07
2022-08-18T17:35:14.499Z,11.32
2022-08-18T17:37:48.673Z,12.20
2022-08-18T17:40:21.135Z,10.75
2022-08-18T17:42:51.737Z,13.30
2022-08-18T17:45:22.198Z,13.70
2022-08-18T17:47:56.423Z,13.98
2022-08-18T17:50:46.005Z,12.32
2022-08-18T17:53:15.670Z,13.68
2022-08-18T17:58:20.543Z,16.95
2022-08-18T18:00:49.234Z,12.05
2022-08-18T18:03:19.602Z,9.68
2022-08-18T18:05:52.838Z,16.52
2022-08-18T18:08:21.656Z,12.57
2022-08-18T18:11:07.660Z,13.50
2022-08-18T18:13:36.560Z,18.13
2022-08-18T18:16:22.467Z,13.32
2022-08-18T18:18:59.891Z,12.00
2022-08-18T18:21:55.328Z,11.30
2022-08-18T18:24:31.987Z,19.98
2022-08-18T18:27:01.194Z,12.13
2022-08-18T18:29:37.387Z,11.60
2022-08-18T18:32:25.133Z,15.63
2022-08-18T18:35:13.181Z,15.65
2022-08-18T18:37:48.501Z,10.45
2022-08-18T18:40:27.925Z,18.45
2022-08-18T18:42:57.525Z,10.45
2022-08-18T18:45:29.024Z,13.52
2022-08-18T18:48:06.470Z,19.65
2022-08-18T18:50:55.867Z,13.30
2022-08-18T18:53:43.348Z,15.27
2022-08-18T18:56:18.955Z,17.08
2022-08-18T18:58:58.453Z,20.40
2022-08-18T19:01:33.410Z,16.67
2022-08-18T19:04:07.295Z,13.98
2022-08-18T19:06:47.448Z,20.27
2022-08-18T19:11:57.748Z,12.77
2022-08-18T19:14:34.715Z,18.77
2022-08-18T19:17:09.504Z,20.27
2022-08-18T19:19:43.060Z,18.83
2022-08-18T19:22:20.942Z,21.38
2022-08-18T19:24:58.238Z,15.90
2022-08-18T19:27:31.055Z,14.93
2022-08-18T19:30:03.479Z,13.95
2022-08-18T19:32:37.392Z,21.48
2022-08-18T19:35:12.103Z,11.75
2022-08-18T19:37:54.877Z,11.77
2022-08-18T19:40:29.220Z,19.52
2022-08-18T19:43:01.578Z,12.85
2022-08-18T19:45:35.714Z,13.80
2022-08-18T19:48:13.145Z,17.88
2022-08-18T19:50:50.549Z,24.15
2022-08-18T19:53:48.226Z,14.52
2022-08-18T19:56:33.667Z,19.55
2022-08-18T19:59:19.386Z,18.85
2022-08-18T20:01:59.326Z,11.90
2022-08-18T20:04:39.079Z,13.98
2022-08-18T20:07:27.768Z,15.70
2022-08-18T20:10:22.055Z,16.00
2022-08-18T20:13:20.162Z,21.67
2022-08-18T20:16:13.132Z,14.30
2022-08-18T20:18:44.025Z,13.32
2022-08-18T20:21:41.363Z,18.48
2022-08-18T20:24:18.489Z,21.67
2022-08-18T20:26:50.541Z,13.25
2022-08-18T20:29:22.179Z,11.88
2022-08-18T20:31:59.994Z,13.27
2022-08-18T20:34:31.129Z,15.07
2022-08-18T20:37:01.880Z,19.02
2022-08-18T20:39:45.403Z,19.58
2022-08-18T20:42:47.687Z,13.05
2022-08-18T20:45:36.637Z,17.15
2022-08-18T20:48:24.929Z,19.35
2022-08-18T20:51:02.565Z,13.88
2022-08-18T20:53:58.818Z,14.55
2022-08-18T20:56:44.044Z,14.15
2022-08-18T20:59:21.311Z,20.27
2022-08-18T21:01:58.127Z,19.80
2022-08-18T21:04:48.467Z,17.75
2022-08-18T21:10:12.702Z,15.05
2022-08-18T21:12:52.100Z,13.13
2022-08-18T21:15:24.429Z,12.00
2022-08-18T21:18:01.122Z,15.93
2022-08-18T21:20:30.111Z,18.17
2022-08-18T21:23:04.424Z,12.68
2022-08-18T21:25:33.822Z,11.65
2022-08-18T21:28:04.130Z,13.68
2022-08-18T21:30:34.992Z,18.40
2022-08-18T21:33:20.197Z,13.80
2022-08-18T21:35:49.194Z,13.32
2022-08-18T21:38:27.164Z,13.35
2022-08-18T21:41:00.097Z,19.10
2022-08-18T21:43:39.216Z,16.60
2022-08-18T21:46:10.446Z,16.13
2022-08-18T21:48:48.932Z,17.67
2022-08-18T21:51:22.925Z,21.80
2022-08-18T21:53:53.429Z,16.38
2022-08-18T21:56:24.947Z,13.52
2022-08-18T21:59:07.274Z,14.75
2022-08-18T22:01:39.668Z,12.63
2022-08-18T22:04:24.351Z,21.27
2022-08-18T22:06:54.837Z,13.27
2022-08-18T22:09:44.799Z,16.25
2022-08-18T22:12:36.924Z,21.65
2022-08-18T22:15:10.504Z,10.85
2022-08-18T22:17:52.090Z,11.50
2022-08-18T22:20:45.135Z,12.13
2022-08-18T22:23:42.418Z,15.98
2022-08-18T22:26:14.121Z,14.02
2022-08-18T22:28:47.468Z,16.23
2022-08-18T22:31:20.861Z,12.57
2022-08-18T22:33:52.024Z,13.57
2022-08-18T22:36:22.917Z,17.42
2022-08-18T22:38:52.511Z,14.23
2022-08-18T22:41:22.218Z,20.23
2022-08-18T22:43:54.988Z,17.33
2022-08-18T22:46:25.201Z,20.80
2022-08-18T22:48:55.842Z,14.50
2022-08-18T22:51:26.518Z,13.68
2022-08-18T22:53:56.869Z,17.58
2022-08-18T22:56:34.391Z,15.45
2022-08-18T22:59:13.621Z,14.85
2022-08-18T23:01:46.961Z,17.17
2022-08-18T23:04:18.555Z,11.57
2022-08-18T23:06:52.478Z,19.67
2022-08-18T23:09:23.421Z,13.27
2022-08-18T23:11:52.753Z,13.00
2022-08-18T23:14:22.338Z,17.60
2022-08-18T23:16:50.875Z,21.20
2022-08-18T23:19:22.291Z,15.00
2022-08-18T23:21:51.801Z,17.05
2022-08-18T23:24:22.061Z,16.43
2022-08-18T23:29:22.700Z,16.45
2022-08-18T23:31:51.811Z,15.40
2022-08-18T23:34:23.999Z,14.53
2022-08-18T23:36:55.574Z,14.45
2022-08-18T23:39:24.429Z,19.30
2022-08-18T23:41:53.512Z,19.08
2022-08-18T23:44:23.894Z,13.30
2022-08-18T23:46:56.460Z,15.88
2022-08-18T23:49:26.809Z,12.38
2022-08-18T23:51:57.764Z,16.17
2022-08-18T23:54:29.919Z,16.92
2022-08-18T23:56:58.905Z,17.45
2022-08-18T23:59:29.148Z,15.35
